Time;durP1;ratioP1;P1;durP2;ratioP2;P2;SDS_P1;SDS_P2;PMS_P1;PMS_P2;Temp;Humidity;BMP_temperature;BMP_pressure;BME280_temperature;BME280_humidity;BME280_pressure;Samples;Min_cycle;Max_cycle;Signal;HPM_P1;HPM_P2
2022/10/29 00:00:55;;;;;;;4.00;1.77;;;;;;;13.00;88.44;100462.75;5019734;28;20033;-74
2022/10/29 00:03:21;;;;;;;6.15;1.88;;;;;;;13.00;88.65;100452.59;5021067;28;20030;-73
2022/10/29 00:05:55;;;;;;;9.85;2.10;;;;;;;12.88;88.99;100450.19;5016005;28;20403;-76
2022/10/29 00:08:20;;;;;;;10.10;1.70;;;;;;;12.88;88.96;100449.38;5020791;28;20033;-73
2022/10/29 00:10:45;;;;;;;6.88;2.28;;;;;;;12.89;89.45;100440.00;5020376;28;20042;-72
2022/10/29 00:13:11;;;;;;;3.45;1.60;;;;;;;12.89;89.42;100429.88;4978757;28;20030;-74
2022/10/29 00:15:40;;;;;;;3.15;1.23;;;;;;;12.87;89.60;100414.78;4994257;28;20454;-71
2022/10/29 00:18:05;;;;;;;2.55;1.27;;;;;;;12.82;90.11;100390.94;5020191;28;20029;-73
2022/10/29 00:20:31;;;;;;;1.67;0.85;;;;;;;12.81;89.97;100407.69;4991865;28;20030;-76
2022/10/29 00:22:56;;;;;;;7.38;1.75;;;;;;;12.78;90.09;100395.34;5026032;28;20058;-72
2022/10/29 00:25:22;;;;;;;6.13;1.50;;;;;;;12.77;90.33;100403.84;4999801;28;20030;-78
2022/10/29 00:27:47;;;;;;;6.93;1.98;;;;;;;12.75;90.99;100407.69;5005663;28;20018;-75
2022/10/29 00:30:13;;;;;;;7.88;1.83;;;;;;;12.80;90.99;100409.59;4980212;28;20025;-75
2022/10/29 00:32:38;;;;;;;12.82;2.35;;;;;;;12.87;91.02;100406.56;4986859;28;20459;-75
2022/10/29 00:35:04;;;;;;;13.85;2.88;;;;;;;12.90;91.49;100386.78;5018513;28;20022;-72
2022/10/29 00:37:30;;;;;;;7.43;2.00;;;;;;;12.98;91.75;100399.06;5002006;28;20029;-70
2022/10/29 00:39:55;;;;;;;11.48;2.60;;;;;;;13.00;91.85;100397.69;5001103;28;20197;-71
2022/10/29 00:42:20;;;;;;;6.80;1.88;;;;;;;13.04;91.79;100382.31;5009231;28;20109;-70
2022/10/29 00:44:46;;;;;;;10.18;2.53;;;;;;;13.07;92.42;100370.75;4982228;28;20080;-72
2022/10/29 00:47:30;;;;;;;8.18;1.67;;;;;;;13.15;92.96;100363.84;4996176;28;20026;-71
2022/10/29 00:50:01;;;;;;;8.10;1.48;;;;;;;13.17;92.98;100369.03;4996964;28;20024;-71
2022/10/29 00:52:30;;;;;;;11.18;2.15;;;;;;;13.17;92.96;100358.06;5016407;28;20038;-71
2022/10/29 00:54:57;;;;;;;14.57;1.92;;;;;;;13.20;93.18;100365.72;5010762;28;20029;-71
2022/10/29 00:57:35;;;;;;;9.10;2.25;;;;;;;13.19;93.56;100364.09;4993874;28;20041;-71
2022/10/29 01:00:01;;;;;;;12.85;2.80;;;;;;;13.18;94.17;100365.19;5011011;28;20095;-71
2022/10/29 01:02:30;;;;;;;16.25;2.45;;;;;;;13.18;94.40;100357.78;5012787;28;20438;-71
2022/10/29 01:04:56;;;;;;;10.30;2.40;;;;;;;13.19;94.67;100358.59;5015714;28;20046;-71
2022/10/29 01:07:22;;;;;;;9.82;2.40;;;;;;;13.17;94.69;100352.56;5012568;28;20369;-71
2022/10/29 01:09:48;;;;;;;9.73;2.50;;;;;;;13.23;95.07;100373.41;5013242;28;20042;-69
2022/10/29 01:12:23;;;;;;;8.32;2.15;;;;;;;13.27;95.08;100378.03;5014804;28;20120;-71
2022/10/29 01:15:07;;;;;;;;;;;;;;;13.33;94.59;100367.00;5010502;28;20472;-71
2022/10/29 01:17:54;;;;;;;4.95;2.10;;;;;;;13.51;94.94;100390.28;5012897;28;20009;-72
2022/10/29 01:20:25;;;;;;;10.48;2.75;;;;;;;13.57;93.77;100386.38;5014964;28;20554;-70
2022/10/29 01:23:03;;;;;;;10.65;2.40;;;;;;;13.56;94.12;100371.00;5002396;28;20427;-70
2022/10/29 01:25:34;;;;;;;3.92;1.88;;;;;;;13.58;93.80;100358.59;5013559;28;20480;-69
2022/10/29 01:28:11;;;;;;;12.75;2.47;;;;;;;13.61;93.94;100330.56;4993399;28;20396;-69
2022/10/29 01:30:45;;;;;;;10.00;2.50;;;;;;;13.66;94.07;100332.44;4997668;28;20034;-72
2022/10/29 01:33:19;;;;;;;;;;;;;;;13.70;93.90;100339.00;5007817;28;20068;-71
2022/10/29 01:36:21;;;;;;;9.20;2.00;;;;;;;13.69;94.01;100334.59;5021279;28;19920;-73
2022/10/29 01:39:15;;;;;;;13.93;2.58;;;;;;;13.67;94.23;100338.72;5010965;28;20022;-73
2022/10/29 01:42:02;;;;;;;10.32;2.33;;;;;;;13.71;94.32;100346.13;5035909;28;20041;-72
2022/10/29 01:44:56;;;;;;;7.40;2.33;;;;;;;13.72;94.14;100334.00;5030890;28;20025;-73
2022/10/29 01:47:29;;;;;;;8.60;2.20;;;;;;;13.74;94.52;100329.06;5026019;28;20087;-72
2022/10/29 01:50:07;;;;;;;16.25;2.72;;;;;;;13.83;94.85;100339.41;5011242;28;20104;-72
2022/10/29 01:52:36;;;;;;;9.30;2.40;;;;;;;13.82;94.78;100335.84;5019206;28;20053;-70
2022/10/29 01:55:02;;;;;;;6.60;1.70;;;;;;;13.81;94.43;100358.13;5017821;28;21109;-71
2022/10/29 01:57:31;;;;;;;10.35;2.40;;;;;;;13.86;94.95;100352.59;5022651;28;20010;-70
2022/10/29 02:00:01;;;;;;;3.75;1.55;;;;;;;13.89;94.69;100357.50;5004708;28;20022;-72
2022/10/29 02:03:03;;;;;;;3.92;1.67;;;;;;;13.88;95.15;100325.63;5019808;28;20026;-73
2022/10/29 02:05:38;;;;;;;15.75;3.03;;;;;;;13.88;94.89;100296.22;4980401;28;20050;-71
2022/10/29 02:08:23;;;;;;;11.98;2.45;;;;;;;13.89;94.81;100283.31;5019140;28;20033;-71
2022/10/29 02:11:15;;;;;;;6.28;1.95;;;;;;;13.91;94.80;100283.81;5002191;28;20041;-71
2022/10/29 02:13:49;;;;;;;3.85;1.67;;;;;;;13.89;95.02;100280.56;4986508;28;20037;-70
2022/10/29 02:16:16;;;;;;;5.85;1.70;;;;;;;13.82;95.22;100280.88;5004847;28;20022;-73
2022/10/29 02:18:44;;;;;;;10.48;2.45;;;;;;;13.85;95.25;100285.00;5023308;28;20021;-72
2022/10/29 02:21:13;;;;;;;6.15;2.00;;;;;;;13.86;95.48;100272.91;5021222;28;20021;-72
2022/10/29 02:23:39;;;;;;;4.55;1.67;;;;;;;13.90;95.34;100272.00;5015694;28;20037;-71
2022/10/29 02:26:04;;;;;;;6.35;2.22;;;;;;;13.92;95.34;100260.72;5018918;28;20030;-71
2022/10/29 02:28:29;;;;;;;5.70;1.95;;;;;;;13.99;94.80;100263.09;4982789;28;20030;-71
2022/10/29 02:30:55;;;;;;;7.43;2.20;;;;;;;14.00;95.37;100254.56;5015320;28;20057;-70
2022/10/29 02:33:20;;;;;;;6.40;2.22;;;;;;;14.02;95.43;100241.34;5020420;28;20041;-72
2022/10/29 02:35:45;;;;;;;13.25;2.60;;;;;;;14.01;95.55;100234.22;5003327;28;20092;-69
2022/10/29 02:38:11;;;;;;;11.63;2.33;;;;;;;14.01;95.62;100234.22;4988559;28;20030;-74
2022/10/29 02:40:36;;;;;;;6.50;2.60;;;;;;;13.99;96.11;100222.72;4997661;28;20027;-74
2022/10/29 02:43:02;;;;;;;8.40;2.67;;;;;;;13.94;96.56;100228.25;5000521;28;20117;-73
2022/10/29 02:45:28;;;;;;;7.25;2.47;;;;;;;13.93;96.63;100227.44;5026959;23;20590;-71
2022/10/29 02:47:53;;;;;;;5.80;2.00;;;;;;;13.88;96.78;100227.50;5041641;28;20398;-73
2022/10/29 02:50:18;;;;;;;7.47;1.90;;;;;;;13.87;97.34;100219.53;5044898;28;20087;-73
2022/10/29 02:52:44;;;;;;;11.30;1.60;;;;;;;13.84;97.59;100215.44;5032245;28;20025;-73
2022/10/29 02:55:09;;;;;;;5.68;1.35;;;;;;;13.83;97.79;100204.75;5058300;28;20028;-74
2022/10/29 02:57:35;;;;;;;3.97;1.60;;;;;;;13.81;97.91;100195.97;5042019;28;20067;-73
2022/10/29 03:00:00;;;;;;;4.50;1.55;;;;;;;13.79;97.74;100194.34;5042513;28;20459;-73
2022/10/29 03:02:25;;;;;;;4.93;1.42;;;;;;;13.78;98.10;100187.22;5041548;28;20033;-72
2022/10/29 03:04:51;;;;;;;6.43;1.35;;;;;;;13.78;98.03;100176.22;5064018;28;20021;-72
2022/10/29 03:07:16;;;;;;;4.80;1.25;;;;;;;13.77;98.22;100163.59;5021454;28;20417;-72
2022/10/29 03:09:42;;;;;;;3.58;1.27;;;;;;;13.81;98.15;100154.75;5040962;28;20044;-73
2022/10/29 03:12:07;;;;;;;3.70;1.02;;;;;;;13.83;97.91;100138.78;5038453;28;20033;-73
2022/10/29 03:14:33;;;;;;;2.03;0.90;;;;;;;13.85;98.23;100133.81;5031191;28;20132;-74
2022/10/29 03:16:58;;;;;;;5.85;1.20;;;;;;;13.85;98.19;100131.88;5025595;28;20080;-73
2022/10/29 03:19:23;;;;;;;3.00;1.02;;;;;;;13.90;97.74;100128.25;5031164;23;20057;-72
2022/10/29 03:21:52;;;;;;;3.30;0.90;;;;;;;13.95;97.89;100130.94;5047395;23;20044;-73
2022/10/29 03:24:17;;;;;;;3.22;0.90;;;;;;;13.99;97.46;100121.00;5014132;28;20033;-75
2022/10/29 03:26:43;;;;;;;1.65;0.75;;;;;;;14.02;97.36;100136.88;5007114;28;20021;-74
2022/10/29 03:29:10;;;;;;;4.07;1.10;;;;;;;14.01;97.46;100124.25;4987655;28;20030;-71
2022/10/29 03:31:35;;;;;;;2.90;0.85;;;;;;;14.01;97.02;100124.25;5036022;28;20056;-74
2022/10/29 03:34:01;;;;;;;3.90;1.02;;;;;;;14.09;97.06;100114.50;5035350;28;20160;-72
2022/10/29 03:36:26;;;;;;;6.55;1.33;;;;;;;14.12;96.94;100122.19;5017675;28;20017;-72
2022/10/29 03:38:52;;;;;;;8.13;1.73;;;;;;;14.09;96.78;100118.09;5040276;28;20437;-73
2022/10/29 03:41:17;;;;;;;8.13;1.05;;;;;;;14.08;97.09;100124.69;5004474;28;20056;-71
2022/10/29 03:43:43;;;;;;;4.45;1.30;;;;;;;14.11;97.28;100124.09;5019100;28;20497;-68
2022/10/29 03:46:08;;;;;;;5.35;1.48;;;;;;;14.13;97.33;100113.66;5013042;28;20029;-73
2022/10/29 03:48:33;;;;;;;7.85;1.40;;;;;;;14.12;97.50;100103.75;5016800;28;20041;-71
2022/10/29 03:51:02;;;;;;;6.55;1.50;;;;;;;14.14;97.45;100095.19;5046159;28;20033;-73
2022/10/29 03:53:28;;;;;;;6.13;1.50;;;;;;;14.11;97.69;100077.34;5041238;28;20060;-73
2022/10/29 03:55:55;;;;;;;4.43;1.75;;;;;;;14.12;98.16;100067.19;5040228;28;20017;-73
2022/10/29 03:58:21;;;;;;;4.57;1.17;;;;;;;14.06;98.32;100046.38;5023037;28;20128;-74
2022/10/29 04:01:01;;;;;;;8.02;2.03;;;;;;;14.04;98.55;100038.44;5005931;28;20037;-73
2022/10/29 04:03:30;;;;;;;7.72;1.75;;;;;;;13.99;99.13;100032.19;5042454;28;20021;-74
2022/10/29 04:05:55;;;;;;;8.35;1.48;;;;;;;14.00;99.69;100026.38;5027166;28;20013;-73
2022/10/29 04:08:22;;;;;;;5.75;1.50;;;;;;;14.09;99.80;100027.38;5018672;28;20037;-73
2022/10/29 04:10:49;;;;;;;6.30;1.35;;;;;;;14.17;99.87;100023.09;5036094;28;20064;-69
2022/10/29 04:13:18;;;;;;;11.05;1.90;;;;;;;14.21;99.63;100023.34;5043996;28;20522;-72
2022/10/29 04:15:46;;;;;;;10.55;2.28;;;;;;;14.31;99.50;100029.47;5018105;28;20017;-70
2022/10/29 04:18:13;;;;;;;8.52;1.83;;;;;;;14.36;99.86;100019.50;5011734;28;20034;-70
2022/10/29 04:20:39;;;;;;;7.45;2.15;;;;;;;14.42;99.56;100015.56;5016740;28;20036;-69
2022/10/29 04:23:06;;;;;;;7.82;1.83;;;;;;;14.46;99.33;100009.13;5035310;28;20045;-70
2022/10/29 04:25:36;;;;;;;4.75;1.80;;;;;;;14.51;99.39;100001.91;5039837;28;20021;-70
2022/10/29 04:28:01;;;;;;;6.88;2.30;;;;;;;14.52;99.86;99995.31;5037506;28;20044;-72
2022/10/29 04:30:27;;;;;;;6.53;1.73;;;;;;;14.56;99.58;100012.81;5040409;28;20025;-73
2022/10/29 04:32:57;;;;;;;7.25;2.20;;;;;;;14.56;99.67;100007.31;4994402;28;20049;-72
2022/10/29 04:35:22;;;;;;;7.22;2.28;;;;;;;14.59;99.78;99995.72;5039441;28;20029;-74
2022/10/29 04:37:54;;;;;;;7.78;2.38;;;;;;;14.61;100.00;100005.31;5040702;28;20064;-74
2022/10/29 04:40:21;;;;;;;9.40;2.17;;;;;;;14.58;100.00;99994.09;5010303;28;20115;-74
2022/10/29 04:43:09;;;;;;;6.55;2.10;;;;;;;14.60;100.00;99997.34;5042724;28;20029;-76
2022/10/29 04:45:39;;;;;;;5.85;2.13;;;;;;;14.61;100.00;99987.97;4998476;28;20029;-74
2022/10/29 04:48:05;;;;;;;10.82;2.13;;;;;;;14.68;100.00;99993.13;5029758;28;20055;-73
2022/10/29 04:50:32;;;;;;;5.28;2.13;;;;;;;14.65;100.00;99989.84;5007413;28;20041;-73
2022/10/29 04:52:59;;;;;;;8.20;2.63;;;;;;;14.71;100.00;99992.50;5042437;28;20026;-73
2022/10/29 04:55:25;;;;;;;6.68;2.80;;;;;;;14.73;100.00;99995.75;5016691;28;20045;-74
2022/10/29 04:57:51;;;;;;;8.65;3.00;;;;;;;14.69;100.00;99986.47;5040748;28;20037;-72
2022/10/29 05:00:17;;;;;;;11.95;2.83;;;;;;;14.71;100.00;99987.81;5028176;28;20057;-74
2022/10/29 05:02:53;;;;;;;8.32;3.00;;;;;;;14.71;100.00;99976.78;5028883;28;20025;-75
2022/10/29 05:05:19;;;;;;;5.38;2.90;;;;;;;14.64;100.00;99968.94;5044002;28;20498;-74
2022/10/29 05:07:46;;;;;;;9.55;2.60;;;;;;;14.66;100.00;99985.16;5029019;28;20037;-74
2022/10/29 05:10:11;;;;;;;13.07;3.40;;;;;;;14.64;100.00;99977.19;5033176;28;20544;-74
2022/10/29 05:12:44;;;;;;;6.97;2.92;;;;;;;14.62;100.00;99984.13;5070807;23;20061;-73
2022/10/29 05:15:12;;;;;;;8.13;2.65;;;;;;;14.61;100.00;99976.97;4629784;23;20552;-73
2022/10/29 05:17:37;;;;;;;14.98;4.20;;;;;;;14.65;100.00;99972.53;5063370;28;20493;-75
2022/10/29 05:20:03;;;;;;;11.77;3.65;;;;;;;14.61;100.00;99960.44;5047243;28;20020;-76
2022/10/29 05:22:29;;;;;;;10.35;3.50;;;;;;;14.64;100.00;99960.69;5047228;28;20021;-76
2022/10/29 05:24:54;;;;;;;10.02;3.03;;;;;;;14.67;100.00;99984.03;5048584;28;20319;-75
2022/10/29 05:27:19;;;;;;;8.48;2.88;;;;;;;14.60;100.00;99967.91;5048034;28;20063;-75
2022/10/29 05:29:45;;;;;;;13.25;3.10;;;;;;;14.62;100.00;99979.44;5056463;28;20056;-74
2022/10/29 05:32:10;;;;;;;15.80;3.65;;;;;;;14.62;100.00;99975.88;5047424;28;20029;-73
2022/10/29 05:34:36;;;;;;;16.65;3.03;;;;;;;14.63;100.00;99974.75;5052138;28;20033;-74
2022/10/29 05:37:01;;;;;;;13.48;3.08;;;;;;;14.64;100.00;99976.38;5042577;28;20032;-74
2022/10/29 05:39:27;;;;;;;24.48;3.30;;;;;;;14.64;100.00;99974.44;5029809;28;20039;-74
2022/10/29 05:41:52;;;;;;;10.00;2.92;;;;;;;14.58;100.00;99966.56;5040983;28;20063;-75
2022/10/29 05:44:18;;;;;;;11.00;2.60;;;;;;;14.53;100.00;99980.41;5033425;28;20036;-72
2022/10/29 05:47:05;;;;;;;;;;;;;;;;;;;;;
2022/10/29 05:49:48;;;;;;;13.18;3.65;;;;;;;14.38;100.00;99952.06;5066188;28;20049;-73
2022/10/29 05:52:19;;;;;;;10.90;3.08;;;;;;;14.38;100.00;99967.75;5036516;28;20037;-73
2022/10/29 05:54:45;;;;;;;11.60;2.78;;;;;;;14.39;100.00;99972.16;5052525;28;20025;-74
2022/10/29 05:57:21;;;;;;;9.70;2.75;;;;;;;14.32;100.00;99958.78;5036559;28;20179;-73
2022/10/29 05:59:49;;;;;;;10.50;2.35;;;;;;;14.29;100.00;99953.88;5069790;28;20027;-73
2022/10/29 06:02:18;;;;;;;5.72;2.10;;;;;;;14.29;100.00;99953.88;5068122;28;20028;-73
2022/10/29 06:04:46;;;;;;;8.52;3.03;;;;;;;14.35;100.00;99963.66;5069777;28;20036;-72
2022/10/29 06:07:11;;;;;;;11.48;2.85;;;;;;;14.33;100.00;99965.91;5070583;28;20028;-71
2022/10/29 06:09:40;;;;;;;13.10;3.00;;;;;;;14.32;100.00;99958.78;5051784;28;20048;-70
2022/10/29 06:12:09;;;;;;;11.30;3.22;;;;;;;14.39;100.00;99959.19;5024375;28;20043;-71
2022/10/29 06:14:38;;;;;;;7.15;2.08;;;;;;;14.35;100.00;99938.91;5051099;28;20045;-70
2022/10/29 06:17:12;;;;;;;16.95;3.35;;;;;;;14.39;100.00;99942.69;5069983;28;20059;-70
2022/10/29 06:19:38;;;;;;;5.85;1.77;;;;;;;14.44;100.00;99928.84;5058386;28;20036;-70
2022/10/29 06:22:04;;;;;;;8.90;2.90;;;;;;;14.58;100.00;99933.56;5055179;28;20033;-70
2022/10/29 06:24:32;;;;;;;9.90;2.50;;;;;;;14.63;100.00;99919.72;5057803;28;20025;-70
2022/10/29 06:27:19;;;;;;;9.30;2.53;;;;;;;14.74;100.00;99915.63;5051805;28;20045;-76
2022/10/29 06:29:44;;;;;;;7.40;2.63;;;;;;;14.78;100.00;99926.88;5054232;28;20032;-70
2022/10/29 06:32:16;;;;;;;7.40;2.40;;;;;;;14.75;100.00;99931.03;5066544;28;20427;-69
2022/10/29 06:34:41;;;;;;;5.82;2.25;;;;;;;14.74;100.00;99926.66;5032458;28;20040;-71
2022/10/29 06:37:06;;;;;;;7.18;2.17;;;;;;;14.77;100.00;99931.53;5026653;28;20029;-71
2022/10/29 06:39:32;;;;;;;9.57;2.58;;;;;;;14.81;100.00;99921.56;5047574;28;20486;-70
2022/10/29 06:41:57;;;;;;;8.10;2.70;;;;;;;14.86;100.00;99917.06;5057352;28;20029;-71
2022/10/29 06:44:23;;;;;;;8.82;2.47;;;;;;;14.90;100.00;99920.84;5042003;28;20025;-69
2022/10/29 06:46:48;;;;;;;12.93;2.75;;;;;;;14.87;100.00;99908.50;5027839;28;20482;-70
2022/10/29 06:49:13;;;;;;;9.60;2.65;;;;;;;14.86;100.00;99923.38;5062944;28;20025;-71
2022/10/29 06:51:39;;;;;;;10.75;2.20;;;;;;;14.84;100.00;99926.44;5044109;28;20036;-70
2022/10/29 06:54:05;;;;;;;7.70;2.33;;;;;;;14.86;100.00;99917.06;5040262;28;20029;-71
2022/10/29 06:56:30;;;;;;;8.77;2.53;;;;;;;14.94;100.00;99921.88;5028466;28;20055;-71
2022/10/29 06:58:55;;;;;;;8.15;2.60;;;;;;;14.98;100.00;99918.19;5036645;28;20036;-70
2022/10/29 07:01:21;;;;;;;7.25;2.45;;;;;;;15.03;100.00;99925.50;5042670;28;20120;-70
2022/10/29 07:03:47;;;;;;;7.07;2.47;;;;;;;15.09;100.00;99937.22;5045816;28;20051;-69
2022/10/29 07:06:13;;;;;;;10.77;2.38;;;;;;;15.15;100.00;99933.25;5059422;28;20052;-71
2022/10/29 07:08:38;;;;;;;6.40;2.03;;;;;;;15.19;100.00;99932.31;5043718;28;20033;-69
2022/10/29 07:11:04;;;;;;;5.95;1.98;;;;;;;15.23;100.00;99937.19;5043718;28;20021;-70
2022/10/29 07:13:29;;;;;;;10.10;2.70;;;;;;;15.26;100.00;99939.31;5038301;28;20267;-70
2022/10/29 07:15:55;;;;;;;8.40;2.30;;;;;;;15.30;100.00;99945.84;5040796;28;20463;-72
2022/10/29 07:18:20;;;;;;;7.68;2.72;;;;;;;15.25;100.00;99924.75;5059527;28;20123;-71
2022/10/29 07:20:46;;;;;;;4.32;2.25;;;;;;;15.33;100.00;99936.97;5059029;28;20021;-69
2022/10/29 07:23:12;;;;;;;11.82;2.50;;;;;;;15.37;100.00;99926.97;5057585;28;20063;-70
2022/10/29 07:25:38;;;;;;;5.30;2.20;;;;;;;15.40;100.00;99937.34;5039519;28;20048;-70
2022/10/29 07:28:06;;;;;;;11.65;2.83;;;;;;;15.45;100.00;99944.69;5041787;28;20078;-71
2022/10/29 07:30:32;;;;;;;10.38;2.55;;;;;;;15.46;100.00;99941.66;5032703;28;20025;-71
2022/10/29 07:32:58;;;;;;;9.45;1.80;;;;;;;15.48;100.00;99933.88;5047406;28;20032;-68
2022/10/29 07:35:23;;;;;;;9.32;2.20;;;;;;;15.57;100.00;99947.72;5025179;28;20021;-71
2022/10/29 07:37:57;;;;;;;9.38;2.90;;;;;;;15.60;100.00;99938.03;5063342;28;20088;-76
2022/10/29 07:40:23;;;;;;;;;;;;;;;15.66;100.00;99947.81;5028521;28;20033;-70
2022/10/29 07:42:51;;;;;;;6.18;2.35;;;;;;;15.68;100.00;99948.28;5053425;28;19959;-70
2022/10/29 07:45:17;;;;;;;8.77;2.90;;;;;;;15.68;100.00;99949.13;5052839;28;20070;-69
2022/10/29 07:47:42;;;;;;;11.88;2.50;;;;;;;15.73;100.00;99956.47;5032670;28;20017;-68
2022/10/29 07:50:08;;;;;;;6.53;2.33;;;;;;;15.72;100.00;99954.81;5051630;28;20013;-70
2022/10/29 07:52:34;;;;;;;9.02;2.67;;;;;;;15.74;100.00;99963.59;5042439;28;20074;-70
2022/10/29 07:55:01;;;;;;;4.65;1.77;;;;;;;15.78;99.97;99961.88;5043011;28;20087;-68
2022/10/29 07:57:27;;;;;;;9.80;2.40;;;;;;;15.84;99.91;99963.41;5043580;28;20032;-70
2022/10/29 07:59:52;;;;;;;10.57;2.40;;;;;;;15.93;99.10;99968.13;5049154;28;20009;-69
2022/10/29 08:02:17;;;;;;;7.80;2.55;;;;;;;15.98;98.65;99966.06;5055063;28;20025;-70
2022/10/29 08:04:43;;;;;;;9.98;2.78;;;;;;;15.98;98.62;99957.00;5042098;28;20045;-71
2022/10/29 08:07:08;;;;;;;9.52;2.70;;;;;;;16.05;97.91;99962.88;5035515;28;20028;-69
2022/10/29 08:09:34;;;;;;;7.38;2.00;;;;;;;16.10;97.32;99960.00;5053847;28;20097;-71
2022/10/29 08:11:59;;;;;;;8.30;2.67;;;;;;;16.14;97.20;99960.19;5037249;28;20039;-69
2022/10/29 08:14:24;;;;;;;7.32;2.45;;;;;;;16.22;97.16;99963.00;5016400;28;20072;-68
2022/10/29 08:16:53;;;;;;;13.27;2.90;;;;;;;16.27;96.59;99950.22;5040491;28;20033;-68
2022/10/29 08:19:19;;;;;;;6.35;2.35;;;;;;;16.37;95.95;99941.66;5058048;28;20028;-70
2022/10/29 08:21:44;;;;;;;11.55;2.95;;;;;;;16.42;95.74;99933.22;5061107;28;20274;-71
2022/10/29 08:24:10;;;;;;;9.60;2.30;;;;;;;16.48;95.27;99931.97;5021801;28;20087;-70
2022/10/29 08:26:36;;;;;;;8.07;3.35;;;;;;;16.62;95.04;99942.06;5044869;28;20034;-72
2022/10/29 08:29:01;;;;;;;6.35;2.13;;;;;;;16.68;94.93;99951.88;5055159;28;20079;-71
2022/10/29 08:31:26;;;;;;;8.77;2.80;;;;;;;16.69;94.55;99945.19;5058633;28;20063;-70
2022/10/29 08:33:52;;;;;;;13.93;2.60;;;;;;;16.65;94.17;99935.94;5039570;28;20037;-70
2022/10/29 08:36:22;;;;;;;6.70;2.53;;;;;;;16.65;94.00;99939.50;5057287;28;20054;-74
2022/10/29 08:38:47;;;;;;;7.32;2.03;;;;;;;16.69;94.09;99943.25;5059211;28;20024;-70
2022/10/29 08:41:31;;;;;;;8.52;2.58;;;;;;;16.89;93.39;99964.00;5043809;28;20021;-71
2022/10/29 08:44:36;;;;;;;9.95;2.80;;;;;;;17.05;92.80;99966.31;5043416;28;20075;-72
2022/10/29 08:47:19;;;;;;;6.07;2.22;;;;;;;17.16;92.11;99962.13;5017016;28;20137;-69
2022/10/29 08:49:57;;;;;;;8.95;2.25;;;;;;;17.35;91.76;99986.69;5053188;28;20112;-70
2022/10/29 08:52:26;;;;;;;10.07;3.03;;;;;;;17.40;90.58;99972.72;5055583;28;20021;-71
2022/10/29 08:55:24;;;;;;;9.13;2.50;;;;;;;17.50;89.75;99968.03;5057417;28;20078;-69
2022/10/29 08:57:56;;;;;;;11.13;2.72;;;;;;;17.65;88.96;99963.97;5050276;28;20033;-71
2022/10/29 09:00:29;;;;;;;3.22;1.90;;;;;;;17.78;89.04;99965.75;5052689;28;20021;-69
2022/10/29 09:02:56;;;;;;;7.82;2.13;;;;;;;17.75;88.06;99963.63;5042429;28;20053;-71
2022/10/29 09:05:29;;;;;;;9.70;2.83;;;;;;;17.73;87.77;99975.03;5025948;28;20037;-71
2022/10/29 09:08:32;;;;;;;13.10;2.78;;;;;;;17.72;87.66;99967.06;5040277;28;20031;-70
2022/10/29 09:11:23;;;;;;;13.55;3.00;;;;;;;17.66;87.28;99963.63;5031791;28;20024;-69
2022/10/29 09:14:20;;;;;;;10.82;2.78;;;;;;;17.67;87.93;99992.09;5047002;28;20032;-71
2022/10/29 09:16:59;;;;;;;13.55;3.75;;;;;;;17.58;87.59;99984.63;5025760;28;20034;-70
2022/10/29 09:19:36;;;;;;;8.85;2.30;;;;;;;17.72;87.69;99991.94;5028436;28;20041;-70
2022/10/29 09:22:27;;;;;;;8.02;2.28;;;;;;;17.83;87.44;100001.53;5034266;28;20026;-70
2022/10/29 09:25:17;;;;;;;7.88;2.58;;;;;;;17.96;86.86;99999.78;5056689;28;20052;-70
2022/10/29 09:28:08;;;;;;;7.78;2.30;;;;;;;18.03;86.63;100011.16;5018831;28;20040;-71
2022/10/29 09:30:45;;;;;;;8.90;2.30;;;;;;;18.00;86.12;100000.75;5015030;28;20079;-72
2022/10/29 09:33:17;;;;;;;15.10;1.83;;;;;;;18.04;86.35;100003.69;5037019;28;20079;-71
2022/10/29 09:35:46;;;;;;;6.22;2.58;;;;;;;18.00;85.96;99999.94;5051052;28;20039;-70
2022/10/29 09:38:25;;;;;;;4.15;1.90;;;;;;;18.04;86.04;99996.19;5039870;28;20040;-72
2022/10/29 09:40:55;;;;;;;7.53;2.05;;;;;;;18.16;85.73;99995.53;5048204;28;20034;-71
2022/10/29 09:43:24;;;;;;;8.77;2.35;;;;;;;18.25;85.59;99996.34;5054375;28;20029;-71
2022/10/29 09:46:12;;;;;;;13.02;2.60;;;;;;;18.17;84.61;99999.91;5042614;28;20837;-71
2022/10/29 09:48:37;;;;;;;7.85;2.58;;;;;;;17.98;85.43;99996.69;5042259;28;20071;-70
2022/10/29 09:51:15;;;;;;;13.95;3.20;;;;;;;17.76;85.47;99996.50;5041373;28;20021;-71
2022/10/29 09:53:40;;;;;;;11.43;2.88;;;;;;;17.57;86.08;99993.25;5058177;28;20013;-69
2022/10/29 09:56:07;;;;;;;8.10;2.92;;;;;;;17.53;86.39;100004.13;5028162;28;20048;-71
2022/10/29 09:58:43;;;;;;;9.95;2.40;;;;;;;17.60;86.75;100001.69;5060797;28;20025;-71
2022/10/29 10:01:09;;;;;;;13.15;3.22;;;;;;;17.80;86.43;99985.59;5057897;28;20028;-70
2022/10/29 10:03:41;;;;;;;8.30;2.65;;;;;;;17.98;85.04;99991.16;5047913;28;20039;-69
2022/10/29 10:06:09;;;;;;;10.73;2.92;;;;;;;18.05;84.56;99983.19;5045844;28;20029;-72
2022/10/29 10:08:57;;;;;;;15.52;3.25;;;;;;;18.06;84.23;99966.25;5059860;28;20032;-69
2022/10/29 10:11:23;;;;;;;20.48;3.25;;;;;;;18.15;83.64;99974.53;5062430;28;20135;-70
2022/10/29 10:13:55;;;;;;;14.77;3.55;;;;;;;18.30;83.59;99965.72;5075709;28;20036;-72
2022/10/29 10:16:27;;;;;;;16.20;5.00;;;;;;;18.53;82.16;99968.25;5036800;28;20040;-71
2022/10/29 10:18:53;;;;;;;12.75;2.70;;;;;;;18.91;80.76;99961.94;5056837;28;20040;-72
2022/10/29 10:21:26;;;;;;;7.53;2.50;;;;;;;19.08;79.90;99961.03;5038941;28;20044;-69
2022/10/29 10:23:56;;;;;;;15.75;2.67;;;;;;;19.32;79.26;99977.03;5057778;28;20067;-70
2022/10/29 10:26:47;;;;;;;6.90;2.45;;;;;;;19.67;77.45;99975.97;5059478;28;20027;-69
2022/10/29 10:29:19;;;;;;;10.15;2.42;;;;;;;19.91;75.78;99980.06;5048150;28;20074;-71
2022/10/29 10:32:10;;;;;;;12.07;2.75;;;;;;;20.42;74.83;99989.00;5046020;28;20117;-70
2022/10/29 10:34:37;;;;;;;14.13;2.80;;;;;;;22.11;70.57;99991.59;5048490;28;20116;-70
2022/10/29 10:37:17;;;;;;;12.98;2.85;;;;;;;22.89;65.08;99993.25;5056820;28;20112;-71
2022/10/29 10:39:52;;;;;;;12.98;2.97;;;;;;;21.85;66.40;99985.66;5041058;28;20070;-70
2022/10/29 10:42:27;;;;;;;7.93;2.92;;;;;;;21.49;68.51;99988.16;5058558;28;20040;-69
2022/10/29 10:44:57;;;;;;;15.68;3.08;;;;;;;24.03;63.52;99985.88;5055908;28;20020;-69
2022/10/29 10:47:28;;;;;;;10.13;2.65;;;;;;;25.21;57.99;99989.97;5058234;28;20096;-69
2022/10/29 10:50:10;;;;;;;7.20;2.10;;;;;;;27.55;54.47;99996.53;5062361;28;20040;-73
2022/10/29 10:52:36;;;;;;;9.35;2.38;;;;;;;29.54;46.23;99998.50;5035638;28;20029;-70
2022/10/29 10:55:15;;;;;;;18.20;3.38;;;;;;;30.31;43.03;99997.81;5036181;28;20021;-69
2022/10/29 10:57:48;;;;;;;10.13;2.60;;;;;;;29.63;43.29;99990.47;5054321;28;20032;-70
2022/10/29 11:00:21;;;;;;;12.40;2.80;;;;;;;29.32;43.97;99986.50;5057887;28;20013;-69
2022/10/29 11:03:08;;;;;;;12.32;2.30;;;;;;;29.16;43.82;99979.28;5042660;28;20021;-70
2022/10/29 11:05:47;;;;;;;7.95;2.63;;;;;;;30.05;43.03;99977.44;5056600;28;20128;-70
2022/10/29 11:08:41;;;;;;;7.38;2.35;;;;;;;30.34;40.48;99974.44;5042330;28;20536;-70
2022/10/29 11:11:16;;;;;;;15.00;2.83;;;;;;;30.37;41.30;99970.78;5048009;28;20048;-70
2022/10/29 11:13:42;;;;;;;14.65;2.80;;;;;;;31.22;39.80;99964.09;5044001;28;20125;-70
2022/10/29 11:16:36;;;;;;;16.38;3.10;;;;;;;31.47;38.86;99967.47;5054273;28;20072;-72
2022/10/29 11:19:23;;;;;;;7.22;2.65;;;;;;;32.08;37.71;99963.13;5036789;28;20611;-71
2022/10/29 11:21:59;;;;;;;12.50;2.50;;;;;;;31.85;36.80;99958.16;5050126;28;20031;-70
2022/10/29 11:24:50;;;;;;;8.40;2.20;;;;;;;31.30;39.03;99945.88;5044209;28;20078;-70
2022/10/29 11:27:25;;;;;;;10.32;2.13;;;;;;;32.01;37.34;99947.03;5038926;28;20048;-69
2022/10/29 11:30:11;;;;;;;8.18;2.50;;;;;;;32.84;36.57;99942.16;5053430;28;20098;-69
2022/10/29 11:33:01;;;;;;;9.88;2.40;;;;;;;34.26;33.32;99941.78;5030606;28;20025;-70
2022/10/29 11:35:53;;;;;;;12.98;2.83;;;;;;;34.02;33.65;99944.75;5051893;28;20090;-73
2022/10/29 11:38:29;;;;;;;12.73;2.63;;;;;;;33.54;33.36;99963.97;5048524;28;20068;-70
2022/10/29 11:41:13;;;;;;;11.70;2.67;;;;;;;32.91;33.95;99941.25;5062900;28;20025;-71
2022/10/29 11:43:38;;;;;;;8.88;2.65;;;;;;;32.53;34.87;99943.06;5052752;28;20430;-71